createdAt,value
2022-09-12T00:02:15.884Z,84.67
2022-09-12T00:05:18.709Z,84.29
2022-09-12T00:08:21.185Z,84.92
2022-09-12T00:11:24.504Z,84.58
2022-09-12T00:14:27.173Z,84.36
2022-09-12T00:17:30.022Z,83.75
2022-09-12T00:20:32.581Z,83.81
2022-09-12T00:23:35.399Z,83.53
2022-09-12T00:26:37.951Z,83.62
2022-09-12T00:29:41.216Z,83.09
2022-09-12T00:32:43.997Z,83.62
2022-09-12T00:35:49.246Z,84.02
2022-09-12T00:38:52.024Z,83.70
2022-09-12T00:41:54.885Z,83.18
2022-09-12T00:44:57.435Z,83.60
2022-09-12T00:48:03.651Z,83.21
2022-09-12T00:51:06.299Z,83.58
2022-09-12T00:54:13.058Z,83.07
2022-09-12T00:57:16.834Z,82.65
2022-09-12T01:00:22.323Z,82.87
2022-09-12T01:03:25.402Z,82.88
2022-09-12T01:06:30.580Z,83.01
2022-09-12T01:09:33.362Z,82.81
2022-09-12T01:12:39.115Z,82.66
2022-09-12T01:15:41.665Z,82.71
2022-09-12T01:19:02.846Z,83.41
2022-09-12T01:22:59.152Z,82.20
2022-09-12T01:26:22.067Z,83.53
2022-09-12T01:29:47.150Z,83.15
2022-09-12T01:33:00.103Z,82.37
2022-09-12T01:36:41.464Z,82.17
2022-09-12T01:39:47.029Z,81.25
2022-09-12T01:43:37.690Z,81.68
2022-09-12T01:46:43.603Z,80.85
2022-09-12T01:50:01.771Z,80.92
2022-09-12T01:53:12.899Z,81.64
2022-09-12T01:56:24.980Z,82.18
2022-09-12T01:59:33.745Z,81.98
2022-09-12T02:02:42.531Z,81.78
2022-09-12T02:05:50.440Z,81.09
2022-09-12T02:09:03.258Z,81.03
2022-09-12T02:12:08.903Z,80.39
2022-09-12T02:15:13.071Z,80.55
2022-09-12T02:18:18.372Z,81.46
2022-09-12T02:21:23.161Z,81.79
2022-09-12T02:24:31.328Z,82.30
2022-09-12T02:27:41.435Z,82.51
2022-09-12T02:31:10.321Z,81.68
2022-09-12T02:34:15.656Z,81.74
2022-09-12T02:37:27.230Z,83.02
2022-09-12T02:40:30.948Z,81.92
2022-09-12T02:43:33.834Z,81.52
2022-09-12T02:46:43.183Z,81.58
2022-09-12T02:49:45.960Z,81.88
2022-09-12T02:52:48.765Z,82.86
2022-09-12T02:55:51.646Z,82.04
2022-09-12T02:58:56.566Z,81.38
2022-09-12T03:02:18.306Z,80.79
2022-09-12T03:05:41.197Z,81.13
2022-09-12T03:09:00.348Z,81.33
2022-09-12T03:12:28.090Z,81.03
2022-09-12T03:15:49.802Z,82.32
2022-09-12T03:19:03.784Z,81.90
2022-09-12T03:22:25.370Z,82.10
2022-09-12T03:25:32.555Z,82.64
2022-09-12T03:28:35.904Z,83.97
2022-09-12T03:31:49.029Z,83.62
2022-09-12T03:34:51.814Z,82.74
2022-09-12T03:37:54.317Z,83.01
2022-09-12T03:40:57.068Z,82.59
2022-09-12T03:43:59.674Z,83.94
2022-09-12T03:47:02.631Z,84.30
2022-09-12T03:50:05.543Z,84.28
2022-09-12T03:53:08.493Z,83.82
2022-09-12T03:56:12.518Z,82.74
2022-09-12T03:59:15.306Z,85.11
2022-09-12T04:02:17.877Z,84.24
2022-09-12T04:05:20.750Z,83.61
2022-09-12T04:08:23.217Z,84.40
2022-09-12T04:11:26.095Z,83.97
2022-09-12T04:14:28.550Z,84.63
2022-09-12T04:17:31.321Z,84.61
2022-09-12T04:20:33.848Z,84.33
2022-09-12T04:23:36.797Z,84.12
2022-09-12T04:26:39.405Z,83.73
2022-09-12T04:29:42.164Z,83.68
2022-09-12T04:32:44.684Z,84.23
2022-09-12T04:35:47.984Z,84.10
2022-09-12T04:38:51.110Z,84.46
2022-09-12T04:41:54.344Z,84.64
2022-09-12T04:44:56.820Z,84.54
2022-09-12T04:47:59.810Z,84.70
2022-09-12T04:51:16.959Z,84.68
2022-09-12T04:54:20.047Z,84.62
2022-09-12T04:57:22.507Z,84.08
2022-09-12T05:00:25.389Z,84.38
2022-09-12T05:03:28.315Z,83.79
2022-09-12T05:06:34.423Z,84.26
2022-09-12T05:09:36.954Z,83.61
2022-09-12T05:12:39.762Z,83.44
2022-09-12T05:15:42.373Z,82.92
2022-09-12T05:18:47.247Z,83.09
2022-09-12T05:21:49.841Z,82.84
2022-09-12T05:24:52.638Z,82.57
2022-09-12T05:27:55.100Z,81.84
2022-09-12T05:31:03.537Z,82.13
2022-09-12T05:34:07.306Z,81.81
2022-09-12T05:37:10.121Z,81.61
2022-09-12T05:40:16.174Z,81.52
2022-09-12T05:43:20.363Z,81.41
2022-09-12T05:46:28.241Z,81.14
2022-09-12T05:49:31.082Z,80.18
2022-09-12T05:52:33.530Z,80.30
2022-09-12T05:55:36.750Z,80.68
2022-09-12T05:58:41.741Z,80.72
2022-09-12T06:01:45.591Z,80.61
2022-09-12T06:04:49.785Z,79.77
2022-09-12T06:07:52.285Z,80.07
2022-09-12T06:11:02.222Z,79.58
2022-09-12T06:14:05.172Z,80.16
2022-09-12T06:17:07.915Z,79.43
2022-09-12T06:20:10.516Z,79.00
2022-09-12T06:23:13.329Z,79.16
2022-09-12T06:26:17.493Z,78.45
2022-09-12T06:29:20.533Z,78.59
2022-09-12T06:32:23.045Z,78.47
2022-09-12T06:35:25.922Z,78.03
2022-09-12T06:38:28.342Z,78.06
2022-09-12T06:41:31.871Z,77.72
2022-09-12T06:44:34.379Z,77.38
2022-09-12T06:47:37.331Z,76.86
2022-09-12T06:50:39.881Z,76.00
2022-09-12T06:53:44.319Z,76.47
2022-09-12T06:56:46.907Z,75.61
2022-09-12T06:59:50.685Z,75.07
2022-09-12T07:02:59.042Z,74.26
2022-09-12T07:06:07.624Z,74.05
2022-09-12T07:09:12.773Z,73.15
2022-09-12T07:12:15.653Z,72.61
2022-09-12T07:15:18.172Z,71.81
2022-09-12T07:18:22.131Z,72.00
2022-09-12T07:21:24.922Z,71.92
2022-09-12T07:24:27.769Z,72.31
2022-09-12T07:27:30.296Z,70.95
2022-09-12T07:30:33.404Z,70.15
2022-09-12T07:33:35.986Z,69.69
2022-09-12T07:36:39.211Z,68.51
2022-09-12T07:39:42.241Z,68.80
2022-09-12T07:42:45.046Z,67.51
2022-09-12T07:45:47.694Z,67.26
2022-09-12T07:48:51.733Z,67.07
2022-09-12T07:51:54.325Z,66.19
2022-09-12T07:54:57.163Z,65.01
2022-09-12T07:57:59.823Z,60.93
2022-09-12T08:01:14.227Z,61.07
2022-09-12T08:04:17.052Z,59.09
2022-09-12T08:07:20.094Z,59.74
2022-09-12T08:10:23.112Z,58.56
2022-09-12T08:13:26.938Z,58.43
2022-09-12T08:16:31.238Z,57.76
2022-09-12T08:19:33.867Z,57.49
2022-09-12T08:22:36.684Z,57.74
2022-09-12T08:25:39.228Z,57.25
2022-09-12T08:28:45.660Z,55.39
2022-09-12T08:31:48.173Z,56.02
2022-09-12T08:34:51.010Z,56.17
2022-09-12T08:37:53.559Z,56.01
2022-09-12T08:41:11.888Z,54.44
2022-09-12T08:44:43.800Z,53.75
2022-09-12T08:47:47.156Z,53.56
2022-09-12T08:50:50.237Z,51.48
2022-09-12T08:53:54.691Z,51.62
2022-09-12T08:57:01.491Z,51.83
2022-09-12T09:00:06.191Z,50.86
2022-09-12T09:03:34.587Z,48.98
2022-09-12T09:06:40.833Z,49.17
2022-09-12T09:10:17.832Z,49.84
2022-09-12T09:13:59.218Z,49.84
2022-09-12T09:17:03.461Z,49.89
2022-09-12T09:20:44.114Z,48.90
2022-09-12T09:23:51.006Z,49.27
2022-09-12T09:27:37.031Z,48.25
2022-09-12T09:30:35.981Z,48.04
2022-09-12T09:33:38.807Z,47.97
2022-09-12T09:37:03.143Z,47.81
2022-09-12T09:40:35.213Z,48.04
2022-09-12T09:43:38.331Z,47.40
2022-09-12T09:46:41.298Z,47.19
2022-09-12T09:49:44.310Z,46.28
2022-09-12T09:52:47.576Z,45.98
2022-09-12T09:55:50.147Z,47.79
2022-09-12T09:58:53.175Z,45.41
2022-09-12T10:02:08.736Z,46.43
2022-09-12T10:05:17.280Z,46.49
2022-09-12T10:08:22.271Z,47.19
2022-09-12T10:11:28.472Z,46.79
2022-09-12T10:14:40.771Z,47.19
2022-09-12T10:17:44.748Z,45.66
2022-09-12T10:20:47.248Z,46.82
2022-09-12T10:24:00.194Z,46.39
2022-09-12T10:27:11.700Z,46.93
2022-09-12T10:30:14.550Z,46.82
2022-09-12T10:33:17.161Z,48.05
2022-09-12T10:36:21.208Z,48.27
2022-09-12T10:39:23.961Z,48.27
2022-09-12T10:42:47.531Z,48.65
2022-09-12T10:45:50.327Z,48.80
2022-09-12T10:49:22.830Z,49.65
2022-09-12T10:52:25.707Z,49.82
2022-09-12T10:55:34.416Z,48.67
2022-09-12T10:58:56.155Z,49.63
2022-09-12T11:02:01.902Z,50.78
2022-09-12T11:05:14.215Z,49.40
2022-09-12T11:08:40.494Z,49.24
2022-09-12T11:12:14.029Z,48.35
2022-09-12T11:15:35.560Z,48.19
2022-09-12T11:18:45.024Z,48.73
2022-09-12T11:22:06.027Z,48.02
2022-09-12T11:25:35.132Z,49.10
2022-09-12T11:28:53.217Z,48.99
2022-09-12T11:31:55.637Z,49.58
2022-09-12T11:35:13.926Z,49.47
2022-09-12T11:38:24.538Z,49.69
2022-09-12T11:41:33.822Z,47.13
2022-09-12T11:44:40.323Z,48.18
2022-09-12T11:47:46.914Z,47.75
2022-09-12T11:50:49.446Z,45.86
2022-09-12T11:54:02.357Z,46.71
2022-09-12T11:57:26.450Z,46.32
2022-09-12T12:00:34.189Z,46.72
2022-09-12T12:03:44.150Z,48.06
2022-09-12T12:06:58.047Z,48.31
2022-09-12T12:10:01.003Z,49.05
2022-09-12T12:13:23.207Z,52.22
2022-09-12T12:16:38.139Z,54.14
2022-09-12T12:19:40.736Z,54.87
2022-09-12T12:22:53.912Z,55.43
2022-09-12T12:25:58.838Z,54.36
2022-09-12T12:29:01.719Z,54.61
2022-09-12T12:32:04.130Z,53.71
2022-09-12T12:35:38.162Z,52.93
2022-09-12T12:38:41.143Z,52.65
2022-09-12T12:41:45.311Z,51.31
2022-09-12T12:44:50.197Z,51.89
2022-09-12T12:48:08.996Z,50.69
2022-09-12T12:51:17.432Z,50.35
2022-09-12T12:54:30.483Z,49.61
2022-09-12T12:57:46.745Z,48.97
2022-09-12T13:01:04.043Z,48.65
2022-09-12T13:04:19.111Z,46.23
2022-09-12T13:07:28.927Z,46.30
2022-09-12T13:10:31.990Z,47.40
2022-09-12T13:13:39.023Z,46.14
2022-09-12T13:16:56.724Z,45.84
2022-09-12T13:20:27.804Z,45.84
2022-09-12T13:23:32.549Z,45.44
2022-09-12T13:26:41.574Z,44.81
2022-09-12T13:29:44.077Z,43.75
2022-09-12T13:32:46.867Z,42.11
2022-09-12T13:36:09.878Z,42.63
2022-09-12T13:39:28.628Z,42.78
2022-09-12T13:42:50.146Z,42.42
2022-09-12T13:45:53.035Z,43.43
2022-09-12T13:48:56.971Z,43.74
2022-09-12T13:52:05.753Z,43.21
2022-09-12T13:55:19.154Z,43.28
2022-09-12T13:58:26.822Z,42.40
2022-09-12T14:01:40.735Z,43.73
2022-09-12T14:05:06.075Z,44.75
2022-09-12T14:08:09.276Z,43.92
2022-09-12T14:11:16.632Z,44.01
2022-09-12T14:14:36.590Z,43.81
2022-09-12T14:17:39.714Z,43.19
2022-09-12T14:20:42.767Z,43.32
2022-09-12T14:23:48.086Z,43.28
2022-09-12T14:26:56.682Z,42.94
2022-09-12T14:30:06.777Z,43.80
2022-09-12T14:33:12.265Z,43.21
2022-09-12T14:36:22.585Z,43.57
2022-09-12T14:39:41.638Z,43.95
2022-09-12T14:42:46.720Z,43.69
2022-09-12T14:46:02.736Z,43.31
2022-09-12T14:49:13.726Z,42.31
2022-09-12T14:52:29.207Z,42.11
2022-09-12T14:55:34.620Z,43.01
2022-09-12T14:58:38.199Z,42.63
2022-09-12T15:01:41.052Z,43.56
2022-09-12T15:04:47.339Z,43.84
2022-09-12T15:07:55.714Z,44.48
2022-09-12T15:10:58.750Z,44.47
2022-09-12T15:14:13.241Z,43.22
2022-09-12T15:17:15.752Z,43.63
2022-09-12T15:20:18.532Z,43.00
2022-09-12T15:23:40.335Z,42.72
2022-09-12T15:26:43.098Z,42.61
2022-09-12T15:29:45.596Z,42.50
2022-09-12T15:32:48.326Z,41.95
2022-09-12T15:35:51.522Z,41.92
2022-09-12T15:38:54.684Z,41.73
2022-09-12T15:41:57.101Z,42.26
2022-09-12T15:45:02.532Z,42.30
2022-09-12T15:48:05.718Z,42.72
2022-09-12T15:51:15.394Z,42.33
2022-09-12T15:54:18.564Z,42.15
2022-09-12T15:57:21.303Z,41.99
2022-09-12T16:00:24.303Z,41.90
2022-09-12T16:03:29.099Z,41.99
2022-09-12T16:06:37.314Z,41.55
2022-09-12T16:09:40.314Z,41.51
2022-09-12T16:12:44.626Z,41.65
2022-09-12T16:15:47.891Z,41.87
2022-09-12T16:18:50.503Z,42.10
2022-09-12T16:21:53.722Z,42.28
2022-09-12T16:24:56.178Z,42.79
2022-09-12T16:27:59.060Z,42.54
2022-09-12T16:31:04.431Z,43.65
2022-09-12T16:34:07.794Z,43.50
2022-09-12T16:37:10.267Z,43.72
2022-09-12T16:40:15.297Z,44.19
2022-09-12T16:43:17.925Z,44.73
2022-09-12T16:46:23.685Z,44.64
2022-09-12T16:49:26.229Z,44.25
2022-09-12T16:52:30.280Z,45.37
2022-09-12T16:55:32.704Z,45.19
2022-09-12T16:58:41.807Z,45.57
2022-09-12T17:01:45.298Z,45.46
2022-09-12T17:04:48.088Z,45.89
2022-09-12T17:07:50.559Z,46.02
2022-09-12T17:10:53.408Z,46.45
2022-09-12T17:14:05.895Z,46.82
2022-09-12T17:17:09.440Z,46.97
2022-09-12T17:20:11.929Z,47.19
2022-09-12T17:23:14.834Z,47.86
2022-09-12T17:26:17.278Z,48.43
2022-09-12T17:29:20.358Z,48.35
2022-09-12T17:32:22.863Z,48.93
2022-09-12T17:35:25.688Z,49.10
2022-09-12T17:38:28.197Z,48.99
2022-09-12T17:41:31.962Z,49.18
2022-09-12T17:44:35.892Z,49.91
2022-09-12T17:47:43.109Z,49.88
2022-09-12T17:50:45.629Z,50.46
2022-09-12T17:53:48.947Z,50.87
2022-09-12T17:56:52.188Z,51.52
2022-09-12T17:59:54.946Z,51.76
2022-09-12T18:02:57.994Z,51.77
2022-09-12T18:06:01.066Z,52.08
2022-09-12T18:09:06.397Z,52.47
2022-09-12T18:12:10.137Z,52.24
2022-09-12T18:15:12.920Z,52.78
2022-09-12T18:18:15.687Z,53.10
2022-09-12T18:21:19.678Z,53.58
2022-09-12T18:24:22.830Z,54.00
2022-09-12T18:27:25.413Z,54.30
2022-09-12T18:30:30.125Z,55.18
2022-09-12T18:33:33.942Z,55.34
2022-09-12T18:36:36.743Z,55.63
2022-09-12T18:39:39.302Z,55.99
2022-09-12T18:42:42.331Z,56.22
2022-09-12T18:45:44.831Z,56.24
2022-09-12T18:48:47.912Z,56.11
2022-09-12T18:51:50.519Z,56.29
2022-09-12T18:54:53.400Z,56.65
2022-09-12T18:57:55.887Z,57.48
2022-09-12T19:00:58.959Z,57.75
2022-09-12T19:04:04.720Z,57.68
2022-09-12T19:07:07.545Z,57.63
2022-09-12T19:10:10.132Z,57.47
2022-09-12T19:13:12.894Z,58.17
2022-09-12T19:16:18.567Z,58.53
2022-09-12T19:19:21.692Z,58.76
2022-09-12T19:22:24.196Z,59.39
2022-09-12T19:25:26.999Z,60.12
2022-09-12T19:28:30.434Z,60.77
2022-09-12T19:31:33.974Z,60.95
2022-09-12T19:34:36.504Z,61.64
2022-09-12T19:37:39.313Z,61.88
2022-09-12T19:40:42.471Z,61.95
2022-09-12T19:43:45.212Z,62.01
2022-09-12T19:46:47.865Z,62.44
2022-09-12T19:49:51.353Z,62.88
2022-09-12T19:52:53.853Z,63.03
2022-09-12T19:56:01.935Z,63.26
2022-09-12T19:59:04.504Z,63.63
2022-09-12T20:02:07.926Z,63.86
2022-09-12T20:05:10.914Z,63.70
2022-09-12T20:08:13.703Z,64.39
2022-09-12T20:11:19.072Z,64.29
2022-09-12T20:14:22.237Z,64.28
2022-09-12T20:17:25.018Z,64.56
2022-09-12T20:20:27.698Z,64.51
2022-09-12T20:23:30.542Z,64.55
2022-09-12T20:26:33.222Z,64.26
2022-09-12T20:29:36.055Z,64.53
2022-09-12T20:32:38.579Z,64.62
2022-09-12T20:35:41.448Z,64.64
2022-09-12T20:38:52.143Z,64.53
2022-09-12T20:41:55.347Z,64.64
2022-09-12T20:44:57.836Z,65.20
2022-09-12T20:48:00.697Z,64.84
2022-09-12T20:51:03.885Z,64.96
2022-09-12T20:54:07.354Z,64.87
2022-09-12T20:57:09.857Z,65.01
2022-09-12T21:00:13.024Z,64.97
2022-09-12T21:03:15.962Z,65.06
2022-09-12T21:06:19.317Z,65.25
2022-09-12T21:09:21.862Z,65.20
2022-09-12T21:12:24.709Z,65.04
2022-09-12T21:15:27.352Z,65.20
2022-09-12T21:18:30.661Z,65.57
2022-09-12T21:21:33.202Z,65.83
2022-09-12T21:24:35.921Z,65.87
2022-09-12T21:27:38.477Z,65.88
2022-09-12T21:30:44.203Z,66.17
2022-09-12T21:33:46.775Z,66.39
2022-09-12T21:36:49.593Z,66.49
2022-09-12T21:39:52.093Z,66.48
2022-09-12T21:42:54.821Z,66.57
2022-09-12T21:45:58.877Z,66.72
2022-09-12T21:49:02.301Z,67.53
2022-09-12T21:52:04.957Z,68.06
2022-09-12T21:55:08.686Z,68.12
2022-09-12T21:58:11.267Z,68.18
2022-09-12T22:01:14.082Z,68.53
2022-09-12T22:04:16.955Z,68.54
2022-09-12T22:07:19.443Z,68.95
2022-09-12T22:10:22.445Z,69.03
2022-09-12T22:13:25.833Z,69.34
2022-09-12T22:16:28.598Z,69.30
2022-09-12T22:19:31.669Z,69.03
2022-09-12T22:22:56.695Z,69.13
2022-09-12T22:26:01.241Z,69.34
2022-09-12T22:29:04.144Z,69.60
2022-09-12T22:32:06.652Z,69.48
2022-09-12T22:35:09.544Z,69.70
2022-09-12T22:38:12.140Z,69.58
2022-09-12T22:41:15.162Z,69.62
2022-09-12T22:44:17.868Z,69.47
2022-09-12T22:47:20.692Z,69.78
2022-09-12T22:50:23.280Z,70.07
2022-09-12T22:53:26.248Z,70.21
2022-09-12T22:56:28.738Z,70.23
2022-09-12T22:59:31.756Z,70.18
2022-09-12T23:02:34.939Z,70.52
2022-09-12T23:05:37.746Z,70.25
2022-09-12T23:08:40.344Z,70.42
2022-09-12T23:11:43.103Z,70.67
2022-09-12T23:14:46.711Z,70.96
2022-09-12T23:17:49.751Z,71.50
2022-09-12T23:21:04.620Z,71.32
2022-09-12T23:24:07.401Z,71.34
2022-09-12T23:27:09.947Z,71.20
2022-09-12T23:30:13.042Z,72.13
2022-09-12T23:33:15.568Z,71.82
2022-09-12T23:36:18.578Z,71.83
2022-09-12T23:39:21.138Z,72.11
2022-09-12T23:42:23.847Z,72.20
2022-09-12T23:45:26.313Z,72.32
2022-09-12T23:48:29.189Z,72.61
2022-09-12T23:51:31.737Z,72.49
2022-09-12T23:54:36.575Z,73.08
2022-09-12T23:57:39.421Z,72.78
